createdAt,value
2022-08-26T00:00:36.981Z,99593.84
2022-08-26T00:03:38.341Z,99592.53
2022-08-26T00:06:29.854Z,99584.03
2022-08-26T00:09:16.333Z,99595.72
2022-08-26T00:12:08.662Z,99585.22
2022-08-26T00:14:43.883Z,99577.06
2022-08-26T00:17:31.018Z,99573.16
2022-08-26T00:20:17.417Z,99567.75
2022-08-26T00:22:54.339Z,99586.72
2022-08-26T00:25:49.704Z,99575.03
2022-08-26T00:28:44.713Z,99514.31
2022-08-26T00:31:24.128Z,99590.69
2022-08-26T00:34:00.874Z,99585.00
2022-08-26T00:36:42.187Z,99525.72
2022-08-26T00:39:48.875Z,99580.16
2022-08-26T00:42:35.256Z,99580.75
2022-08-26T00:45:25.276Z,99575.22
2022-08-26T00:48:10.804Z,99585.16
2022-08-26T00:50:58.289Z,99572.13
2022-08-26T00:57:01.070Z,99581.38
2022-08-26T00:59:43.234Z,99566.72
2022-08-26T01:02:31.477Z,99568.25
2022-08-26T01:05:36.969Z,99565.56
2022-08-26T01:08:16.015Z,99565.22
2022-08-26T01:10:55.835Z,99546.94
2022-08-26T01:13:31.120Z,99563.84
2022-08-26T01:16:26.413Z,99560.69
2022-08-26T01:22:30.083Z,99556.09
2022-08-26T01:28:06.466Z,99557.78
2022-08-26T01:30:51.845Z,99512.16
2022-08-26T01:33:31.466Z,99552.09
2022-08-26T01:36:17.942Z,99564.06
2022-08-26T01:39:14.972Z,99559.34
2022-08-26T01:42:20.983Z,99548.38
2022-08-26T01:45:07.106Z,99551.19
2022-08-26T01:47:56.912Z,99544.94
2022-08-26T01:50:44.246Z,99537.31
2022-08-26T01:53:51.508Z,99528.16
2022-08-26T01:56:36.485Z,99533.50
2022-08-26T01:59:42.924Z,99526.22
2022-08-26T02:02:21.629Z,99521.16
2022-08-26T02:11:19.934Z,99522.09
2022-08-26T02:14:16.525Z,99506.63
2022-08-26T02:17:19.342Z,99493.34
2022-08-26T02:20:30.190Z,99532.00
2022-08-26T02:23:15.157Z,99510.69
2022-08-26T02:26:04.269Z,99517.94
2022-08-26T02:28:52.860Z,99522.53
2022-08-26T02:31:29.479Z,99514.47
2022-08-26T02:34:45.915Z,99519.94
2022-08-26T02:37:45.562Z,99522.03
2022-08-26T02:40:27.627Z,99536.69
2022-08-26T02:43:05.042Z,99535.44
2022-08-26T02:45:52.395Z,99539.66
2022-08-26T02:48:36.885Z,99537.88
2022-08-26T02:51:17.610Z,99554.25
2022-08-26T02:54:02.975Z,99550.63
2022-08-26T02:56:52.643Z,99543.88
2022-08-26T02:59:31.284Z,99534.66
2022-08-26T03:02:22.325Z,99537.63
2022-08-26T03:05:09.572Z,99551.25
2022-08-26T03:08:05.808Z,99545.47
2022-08-26T03:10:50.262Z,99532.72
2022-08-26T03:13:28.985Z,99543.41
2022-08-26T03:16:14.922Z,99538.03
2022-08-26T03:18:59.596Z,99486.84
2022-08-26T03:21:48.437Z,99538.50
2022-08-26T03:24:34.149Z,99526.72
2022-08-26T03:27:20.504Z,99525.94
2022-08-26T03:30:13.469Z,99521.38
2022-08-26T03:32:59.523Z,99517.59
2022-08-26T03:35:47.989Z,99522.72
2022-08-26T03:38:55.730Z,99522.09
2022-08-26T03:41:47.647Z,99528.53
2022-08-26T03:44:27.206Z,99529.81
2022-08-26T03:48:00.909Z,99528.25
2022-08-26T03:53:57.929Z,99525.06
2022-08-26T03:56:43.455Z,99522.50
2022-08-26T03:59:37.806Z,99511.88
2022-08-26T04:02:20.794Z,99534.69
2022-08-26T04:05:14.205Z,99535.41
2022-08-26T04:08:06.597Z,99508.66
2022-08-26T04:10:46.052Z,99526.84
2022-08-26T04:13:27.970Z,99539.13
2022-08-26T05:03:30.630Z,99514.94
2022-08-26T05:06:14.610Z,99508.66
2022-08-26T05:08:54.574Z,99489.34
2022-08-26T05:11:53.943Z,99512.63
2022-08-26T05:14:52.355Z,99504.16
2022-08-26T05:17:33.727Z,99515.25
2022-08-26T05:20:48.736Z,99523.69
2022-08-26T05:23:33.640Z,99512.03
2022-08-26T05:26:24.982Z,99506.75
2022-08-26T05:29:17.884Z,99499.06
2022-08-26T05:32:22.024Z,99523.78
2022-08-26T05:35:08.893Z,99519.25
2022-08-26T05:38:09.279Z,99530.66
2022-08-26T05:41:09.015Z,99528.09
2022-08-26T05:43:55.893Z,99522.97
2022-08-26T05:46:44.825Z,99526.22
2022-08-26T05:49:36.246Z,99521.22
2022-08-26T05:52:26.527Z,99546.09
2022-08-26T05:55:44.390Z,99529.22
2022-08-26T06:02:00.395Z,99495.16
2022-08-26T06:04:36.925Z,99527.84
2022-08-26T06:07:16.339Z,99534.19
2022-08-26T06:10:01.550Z,99454.16
2022-08-26T06:12:54.285Z,99552.88
2022-08-26T06:15:30.832Z,99557.28
2022-08-26T06:18:25.601Z,99551.66
2022-08-26T06:21:05.713Z,99559.06
2022-08-26T06:24:12.913Z,99555.22
2022-08-26T06:27:12.054Z,99557.41
2022-08-26T06:30:33.258Z,99547.97
2022-08-26T06:33:22.791Z,99560.09
2022-08-26T06:36:11.688Z,99556.72
2022-08-26T06:39:02.291Z,99543.75
2022-08-26T06:41:48.442Z,99561.94
2022-08-26T06:44:38.881Z,99556.25
2022-08-26T06:47:21.859Z,99558.19
2022-08-26T06:50:03.214Z,99553.34
2022-08-26T06:53:06.854Z,99546.06
2022-08-26T06:55:57.371Z,99539.47
2022-08-26T06:58:48.576Z,99543.66
2022-08-26T07:01:43.044Z,99538.47
2022-08-26T07:04:40.275Z,99520.56
2022-08-26T07:07:32.685Z,99552.34
2022-08-26T07:10:18.372Z,99542.91
2022-08-26T07:13:01.063Z,99545.09
2022-08-26T07:18:48.064Z,99552.84
2022-08-26T07:21:40.454Z,99563.38
2022-08-26T07:24:20.184Z,99553.56
2022-08-26T07:27:02.946Z,99531.53
2022-08-26T07:32:28.860Z,99562.78
2022-08-26T07:35:17.454Z,99567.91
2022-08-26T07:41:25.692Z,99553.56
2022-08-26T07:44:08.528Z,99568.81
2022-08-26T07:47:19.406Z,99554.53
2022-08-26T07:50:15.223Z,99580.56
2022-08-26T07:52:51.493Z,99582.66
2022-08-26T07:55:34.611Z,99585.66
2022-08-26T07:58:36.545Z,99579.59
2022-08-26T08:01:25.866Z,99582.22
2022-08-26T08:04:17.162Z,99586.44
2022-08-26T08:07:04.839Z,99593.25
2022-08-26T08:09:57.530Z,99598.31
2022-08-26T08:12:35.080Z,99606.06
2022-08-26T08:15:20.119Z,99568.75
2022-08-26T08:18:15.669Z,99605.31
2022-08-26T08:21:21.602Z,99605.75
2022-08-26T08:23:59.082Z,99605.84
2022-08-26T08:26:42.356Z,99601.81
2022-08-26T08:29:25.965Z,99601.53
2022-08-26T08:32:24.229Z,99606.56
2022-08-26T08:35:10.795Z,99628.53
2022-08-26T08:37:57.119Z,99629.19
2022-08-26T08:40:33.135Z,99585.09
2022-08-26T08:43:12.453Z,99645.75
2022-08-26T08:45:51.004Z,99644.59
2022-08-26T08:48:35.268Z,99651.22
2022-08-26T08:51:37.657Z,99599.81
2022-08-26T08:54:22.052Z,99634.00
2022-08-26T08:57:08.900Z,99653.53
2022-08-26T09:00:05.459Z,99658.97
2022-08-26T09:03:10.569Z,99659.28
2022-08-26T09:05:56.918Z,99668.84
2022-08-26T09:08:43.196Z,99678.56
2022-08-26T09:11:24.132Z,99683.81
2022-08-26T09:14:03.988Z,99688.03
2022-08-26T09:17:08.114Z,99705.22
2022-08-26T09:19:50.096Z,99697.09
2022-08-26T09:22:44.528Z,99706.00
2022-08-26T09:25:38.989Z,99714.47
2022-08-26T09:28:29.189Z,99651.00
2022-08-26T09:31:19.982Z,99718.19
2022-08-26T09:34:23.106Z,99714.97
2022-08-26T09:40:40.381Z,99719.91
2022-08-26T09:43:40.371Z,99726.16
2022-08-26T09:46:25.955Z,99699.47
2022-08-26T09:49:36.196Z,99740.63
2022-08-26T09:52:51.587Z,99747.34
2022-08-26T09:55:32.504Z,99756.06
2022-08-26T09:58:24.316Z,99739.22
2022-08-26T10:01:21.560Z,99772.31
2022-08-26T10:09:45.547Z,99780.91
2022-08-26T10:12:58.049Z,99772.66
2022-08-26T10:15:50.715Z,99773.03
2022-08-26T10:18:37.412Z,99787.03
2022-08-26T10:21:52.258Z,99784.66
2022-08-26T10:24:46.382Z,99800.03
2022-08-26T10:30:54.851Z,99795.44
2022-08-26T10:33:36.250Z,99800.75
2022-08-26T10:37:05.143Z,99797.75
2022-08-26T10:40:08.707Z,99803.28
2022-08-26T10:42:59.228Z,99803.91
2022-08-26T10:45:41.227Z,99816.28
2022-08-26T10:48:53.857Z,99812.09
2022-08-26T10:51:45.591Z,99808.97
2022-08-26T10:54:27.712Z,99816.97
2022-08-26T11:00:38.482Z,99827.66
2022-08-26T11:03:51.655Z,99829.25
2022-08-26T11:06:39.590Z,99834.09
2022-08-26T11:09:26.313Z,99832.81
2022-08-26T11:12:21.562Z,99834.84
2022-08-26T11:15:18.847Z,99850.00
2022-08-26T11:18:11.590Z,99846.97
2022-08-26T11:21:10.246Z,99853.13
2022-08-26T11:23:53.636Z,99842.25
2022-08-26T11:26:56.222Z,99842.06
2022-08-26T11:30:13.292Z,99849.38
2022-08-26T11:33:06.013Z,99857.72
2022-08-26T11:36:00.655Z,99855.19
2022-08-26T11:39:02.859Z,99866.66
2022-08-26T11:41:52.782Z,99874.59
2022-08-26T11:44:35.488Z,99873.06
2022-08-26T11:47:13.958Z,99871.31
2022-08-26T11:49:51.522Z,99844.47
2022-08-26T11:52:31.478Z,99901.47
2022-08-26T11:55:47.329Z,99905.38
2022-08-26T11:58:45.971Z,99905.66
2022-08-26T12:01:44.801Z,99878.75
2022-08-26T12:04:48.266Z,99914.06
2022-08-26T12:07:37.654Z,99914.28
2022-08-26T12:10:36.751Z,99913.56
2022-08-26T12:13:36.410Z,99925.84
2022-08-26T12:16:13.809Z,99936.53
2022-08-26T12:18:57.041Z,99941.06
2022-08-26T12:21:45.455Z,99947.41
2022-08-26T12:24:33.434Z,99958.13
2022-08-26T12:27:29.741Z,99928.31
2022-08-26T12:30:14.090Z,99963.06
2022-08-26T12:33:25.690Z,99950.81
2022-08-26T12:36:19.629Z,99937.63
2022-08-26T12:39:24.208Z,99951.41
2022-08-26T12:42:01.024Z,99940.69
2022-08-26T12:44:58.097Z,99928.94
2022-08-26T12:47:43.976Z,99922.22
2022-08-26T12:50:36.903Z,99888.66
2022-08-26T12:53:33.450Z,99940.22
2022-08-26T12:56:24.466Z,99944.75
2022-08-26T12:59:24.150Z,99947.50
2022-08-26T13:02:00.309Z,99894.47
2022-08-26T13:04:58.694Z,99960.41
2022-08-26T13:07:49.572Z,99958.03
2022-08-26T13:10:43.534Z,99931.25
2022-08-26T13:13:34.954Z,99962.22
2022-08-26T13:16:24.121Z,99978.59
2022-08-26T13:19:10.597Z,99915.75
2022-08-26T13:22:12.641Z,99953.34
2022-08-26T13:25:00.263Z,99961.22
2022-08-26T13:31:00.065Z,99973.59
2022-08-26T13:33:40.404Z,99908.69
2022-08-26T13:36:21.161Z,99969.38
2022-08-26T13:38:55.643Z,99985.44
2022-08-26T13:41:47.262Z,99987.03
2022-08-26T13:47:31.280Z,99994.25
2022-08-26T13:50:07.446Z,99987.88
2022-08-26T13:52:42.482Z,99997.53
2022-08-26T13:55:40.317Z,100006.16
2022-08-26T13:58:21.032Z,99989.31
2022-08-26T14:01:18.495Z,99962.75
2022-08-26T14:03:55.101Z,99997.06
2022-08-26T14:06:49.789Z,100005.41
2022-08-26T14:09:28.431Z,99996.34
2022-08-26T14:12:13.495Z,99973.75
2022-08-26T14:15:21.267Z,99987.78
2022-08-26T14:17:59.010Z,99992.91
2022-08-26T14:20:36.394Z,99979.22
2022-08-26T14:23:21.087Z,99999.75
2022-08-26T14:26:00.332Z,100015.28
2022-08-26T14:28:41.772Z,100016.72
2022-08-26T14:31:18.334Z,99992.47
2022-08-26T14:34:03.647Z,100020.63
2022-08-26T14:36:45.069Z,100010.69
2022-08-26T14:39:46.588Z,99988.31
2022-08-26T14:42:44.727Z,99992.41
2022-08-26T14:45:55.342Z,100024.09
2022-08-26T14:48:43.846Z,100009.78
2022-08-26T14:51:22.520Z,100036.50
2022-08-26T14:54:16.370Z,100026.72
2022-08-26T14:57:04.346Z,100019.81
2022-08-26T14:59:49.615Z,100032.47
2022-08-26T15:02:37.433Z,100019.91
2022-08-26T15:08:12.207Z,100020.53
2022-08-26T15:10:49.775Z,100013.59
2022-08-26T15:13:42.275Z,100020.41
2022-08-26T15:16:22.613Z,100020.09
2022-08-26T15:19:22.254Z,100013.88
2022-08-26T15:22:09.973Z,100023.13
2022-08-26T15:24:59.959Z,100023.81
2022-08-26T15:27:46.757Z,100009.69
2022-08-26T15:33:17.623Z,100016.50
2022-08-26T15:35:58.590Z,100013.81
2022-08-26T15:38:41.028Z,100004.91
2022-08-26T15:41:28.780Z,100007.81
2022-08-26T15:44:15.945Z,100004.56
2022-08-26T15:47:06.896Z,100017.28
2022-08-26T15:49:47.731Z,100024.44
2022-08-26T15:52:23.052Z,100016.03
2022-08-26T15:57:57.334Z,100025.22
2022-08-26T16:00:36.726Z,100017.28
2022-08-26T16:03:31.125Z,100008.59
2022-08-26T16:06:10.646Z,99933.31
2022-08-26T16:08:48.061Z,99988.97
2022-08-26T16:11:44.639Z,100006.03
2022-08-26T16:14:20.854Z,100012.97
2022-08-26T16:17:01.654Z,99997.16
2022-08-26T16:19:51.928Z,100001.44
2022-08-26T16:22:29.704Z,99990.88
2022-08-26T16:25:16.003Z,99995.47
2022-08-26T16:28:11.564Z,99992.09
2022-08-26T16:30:47.588Z,99998.34
2022-08-26T16:33:39.200Z,100002.53
2022-08-26T16:36:23.012Z,100005.88
2022-08-26T16:39:04.953Z,99949.66
2022-08-26T16:42:14.269Z,99994.97
2022-08-26T16:45:03.535Z,100007.03
2022-08-26T16:47:48.882Z,100013.19
2022-08-26T16:50:38.983Z,100000.81
2022-08-26T16:53:24.952Z,100003.47
2022-08-26T16:56:16.240Z,100004.25
2022-08-26T16:58:58.667Z,99999.75
2022-08-26T17:01:35.897Z,99999.56
2022-08-26T17:07:09.008Z,100001.13
2022-08-26T17:09:58.061Z,99907.22
2022-08-26T17:12:37.136Z,99992.59
2022-08-26T17:18:13.197Z,99975.59
2022-08-26T17:20:54.583Z,99971.09
2022-08-26T17:23:49.299Z,99978.16
2022-08-26T17:26:33.338Z,99986.31
2022-08-26T17:29:13.472Z,99986.31
2022-08-26T17:31:51.858Z,99989.75
2022-08-26T17:34:35.504Z,99993.34
2022-08-26T17:37:29.910Z,100001.94
2022-08-26T17:40:10.087Z,99998.28
2022-08-26T17:42:51.034Z,100005.03
2022-08-26T17:48:29.989Z,100009.84
2022-08-26T17:51:15.314Z,99988.53
2022-08-26T17:53:57.563Z,100004.56
2022-08-26T17:56:42.251Z,100013.25
2022-08-26T17:59:37.130Z,100004.41
2022-08-26T18:02:36.084Z,99995.06
2022-08-26T18:05:22.170Z,100006.56
2022-08-26T18:08:03.374Z,99961.53
2022-08-26T18:10:47.994Z,100012.00
2022-08-26T18:13:27.289Z,100016.44
2022-08-26T18:16:12.534Z,100006.88
2022-08-26T18:18:55.465Z,100012.84
2022-08-26T18:21:41.371Z,100015.44
2022-08-26T18:24:25.666Z,100028.44
2022-08-26T18:27:13.347Z,100023.06
2022-08-26T18:30:01.313Z,100015.13
2022-08-26T18:32:44.355Z,100008.97
2022-08-26T18:35:20.595Z,100006.44
2022-08-26T18:38:10.418Z,100009.97
2022-08-26T18:40:53.215Z,100007.44
2022-08-26T18:44:01.399Z,100010.94
2022-08-26T18:46:54.241Z,99991.44
2022-08-26T18:49:38.869Z,99998.47
2022-08-26T18:52:32.528Z,100012.00
2022-08-26T18:55:22.298Z,99960.69
2022-08-26T18:58:06.994Z,99947.00
2022-08-26T19:01:02.280Z,100020.72
2022-08-26T19:03:44.557Z,100022.41
2022-08-26T19:06:39.848Z,100020.66
2022-08-26T19:09:18.443Z,100015.88
2022-08-26T19:11:58.939Z,100041.88
2022-08-26T19:14:50.377Z,100040.16
2022-08-26T19:17:38.753Z,100014.78
2022-08-26T19:20:33.782Z,100041.88
2022-08-26T19:23:37.469Z,100034.88
2022-08-26T19:26:22.429Z,100031.28
2022-08-26T19:29:01.024Z,100032.16
2022-08-26T19:31:52.636Z,100049.63
2022-08-26T19:34:35.754Z,100045.13
2022-08-26T19:37:11.389Z,100041.47
2022-08-26T19:39:59.128Z,100046.69
2022-08-26T19:42:39.752Z,100050.25
2022-08-26T19:45:25.060Z,100034.28
2022-08-26T19:48:07.020Z,100041.25
2022-08-26T19:53:34.434Z,100043.72
2022-08-26T19:56:14.105Z,100053.41
2022-08-26T19:59:04.111Z,100062.25
2022-08-26T20:02:11.088Z,100071.03
2022-08-26T20:04:45.630Z,100074.38
2022-08-26T20:07:42.854Z,100060.22
2022-08-26T20:10:38.280Z,100061.94
2022-08-26T20:13:34.844Z,100065.28
2022-08-26T20:16:16.709Z,100073.03
2022-08-26T20:19:29.238Z,100074.94
2022-08-26T20:22:14.052Z,100093.19
2022-08-26T20:24:51.793Z,100079.44
2022-08-26T20:27:52.101Z,100093.69
2022-08-26T20:30:45.729Z,100068.78
2022-08-26T20:33:46.180Z,100087.59
2022-08-26T20:36:25.860Z,100106.91
2022-08-26T20:39:14.065Z,100105.19
2022-08-26T20:41:51.149Z,100048.41
2022-08-26T20:44:24.535Z,100080.28
2022-08-26T20:47:08.078Z,100073.13
2022-08-26T20:49:46.913Z,100058.19
2022-08-26T20:52:29.175Z,100002.91
2022-08-26T20:55:15.579Z,100048.16
2022-08-26T20:57:54.969Z,100065.47
2022-08-26T21:00:31.486Z,100061.91
2022-08-26T21:03:45.270Z,100082.75
2022-08-26T21:06:52.340Z,100100.81
2022-08-26T21:09:45.298Z,100101.59
2022-08-26T21:12:36.405Z,100094.25
2022-08-26T21:15:22.809Z,100091.84
2022-08-26T21:18:10.116Z,100094.25
2022-08-26T21:20:59.212Z,100099.56
2022-08-26T21:23:42.971Z,100093.31
2022-08-26T21:26:32.038Z,100089.09
2022-08-26T21:29:20.013Z,100079.69
2022-08-26T21:32:18.303Z,100065.00
2022-08-26T21:35:11.451Z,100065.00
2022-08-26T21:37:57.722Z,100079.03
2022-08-26T21:40:36.784Z,100090.28
2022-08-26T21:43:33.644Z,100100.63
2022-08-26T21:46:30.090Z,100093.53
2022-08-26T21:49:21.734Z,100046.19
2022-08-26T21:52:06.825Z,100090.22
2022-08-26T21:54:57.614Z,100062.50
2022-08-26T21:58:12.903Z,100087.16
2022-08-26T22:00:59.338Z,100095.13
2022-08-26T22:03:47.671Z,100088.56
2022-08-26T22:06:32.250Z,100105.81
2022-08-26T22:09:19.819Z,100125.16
2022-08-26T22:12:14.541Z,100128.41
2022-08-26T22:15:03.867Z,100113.41
2022-08-26T22:17:53.400Z,100116.41
2022-08-26T22:23:34.234Z,100128.56
2022-08-26T22:26:16.111Z,100140.50
2022-08-26T22:29:06.591Z,100135.75
2022-08-26T22:31:54.305Z,100149.94
2022-08-26T22:34:47.952Z,100154.03
2022-08-26T22:37:34.373Z,100143.13
2022-08-26T22:40:13.342Z,100124.63
2022-08-26T22:43:00.173Z,100123.81
2022-08-26T22:45:39.196Z,100124.97
2022-08-26T22:48:16.474Z,100122.19
2022-08-26T22:50:58.259Z,100128.22
2022-08-26T22:53:49.075Z,100134.75
2022-08-26T22:56:27.610Z,100133.91
2022-08-26T22:59:22.115Z,100136.53
2022-08-26T23:02:26.485Z,100108.56
2022-08-26T23:05:15.160Z,100130.47
2022-08-26T23:08:01.081Z,100128.22
2022-08-26T23:10:42.235Z,100138.69
2022-08-26T23:13:27.651Z,100138.31
2022-08-26T23:16:12.018Z,100145.34
2022-08-26T23:18:55.220Z,100145.66
2022-08-26T23:21:40.628Z,100137.28
2022-08-26T23:24:27.494Z,100130.06
2022-08-26T23:27:02.179Z,100101.56
2022-08-26T23:29:48.389Z,100096.53
2022-08-26T23:32:41.483Z,100112.44
2022-08-26T23:35:23.235Z,100095.47
2022-08-26T23:38:04.425Z,100090.84
2022-08-26T23:40:46.433Z,100094.25
2022-08-26T23:43:39.326Z,100078.34
2022-08-26T23:46:21.518Z,100078.34
2022-08-26T23:49:00.701Z,100081.41
2022-08-26T23:51:52.060Z,100074.03
2022-08-26T23:54:37.208Z,100072.50
